createdAt,value
2023-03-16T07:11:15.098Z,80.04
2023-03-16T07:12:16.473Z,79.13
2023-03-16T07:13:18.330Z,78.78
2023-03-16T07:14:19.979Z,78.03
2023-03-16T07:15:21.857Z,77.35
2023-03-16T07:16:23.594Z,77.27
2023-03-16T07:17:24.993Z,77.78
2023-03-16T07:18:26.476Z,78.12
2023-03-16T07:19:28.871Z,77.85
2023-03-16T07:20:32.857Z,77.35
2023-03-16T07:21:39.234Z,76.34
2023-03-16T07:22:41.733Z,75.16
2023-03-16T07:23:43.174Z,74.96
2023-03-16T07:24:45.173Z,76.40
2023-03-16T07:25:46.535Z,76.40
2023-03-16T07:26:48.011Z,75.14
2023-03-16T07:27:49.386Z,75.48
2023-03-16T07:28:50.764Z,75.99
2023-03-16T07:29:52.332Z,75.60
2023-03-16T07:31:03.345Z,75.06
2023-03-16T07:32:05.891Z,73.83
2023-03-16T07:33:07.394Z,72.93
2023-03-16T07:34:08.911Z,72.83
2023-03-16T07:35:11.569Z,71.73
2023-03-16T07:36:13.189Z,68.98
2023-03-16T07:37:17.139Z,69.92
2023-03-16T07:38:18.637Z,69.01
2023-03-16T07:39:20.113Z,70.11
2023-03-16T07:40:21.563Z,71.12
2023-03-16T07:41:23.196Z,70.75
2023-03-16T07:42:24.609Z,68.68
2023-03-16T07:43:26.028Z,68.45
2023-03-16T07:44:28.094Z,68.90
2023-03-16T07:45:29.915Z,68.02
2023-03-16T07:46:32.637Z,68.30
2023-03-16T07:47:34.174Z,68.04
2023-03-16T07:48:35.575Z,67.39
2023-03-16T07:49:37.083Z,67.46
2023-03-16T07:50:38.521Z,65.94
2023-03-16T07:51:40.948Z,65.94
2023-03-16T07:52:42.866Z,65.13
2023-03-16T07:53:44.286Z,64.64
2023-03-16T07:54:45.711Z,65.45
2023-03-16T07:55:47.122Z,65.76
2023-03-16T07:56:49.856Z,66.95
2023-03-16T07:57:51.509Z,65.40
2023-03-16T07:58:52.867Z,64.38
2023-03-16T07:59:54.203Z,65.89
2023-03-16T08:01:00.824Z,65.14
2023-03-16T08:02:02.421Z,65.80
2023-03-16T08:03:03.873Z,63.80
2023-03-16T08:04:05.458Z,62.66
2023-03-16T08:05:10.031Z,65.56
2023-03-16T08:06:12.073Z,65.37
2023-03-16T08:07:14.860Z,65.58
2023-03-16T08:08:16.282Z,64.70
2023-03-16T08:09:18.392Z,64.80
2023-03-16T08:10:19.903Z,63.12
2023-03-16T08:11:23.794Z,63.51
2023-03-16T08:12:25.493Z,64.36
2023-03-16T08:13:27.307Z,64.21
2023-03-16T08:14:28.956Z,64.59
2023-03-16T08:15:33.781Z,63.43
2023-03-16T08:16:35.819Z,64.35
2023-03-16T08:17:37.850Z,65.17
2023-03-16T08:18:39.231Z,65.34
2023-03-16T08:19:40.970Z,65.84
2023-03-16T08:20:42.489Z,67.42
2023-03-16T08:22:00.348Z,66.23
2023-03-16T08:23:02.061Z,66.45
2023-03-16T08:24:03.632Z,65.28
2023-03-16T08:25:07.313Z,62.63
2023-03-16T08:26:08.867Z,60.99
2023-03-16T08:27:11.001Z,62.95
2023-03-16T08:28:12.657Z,64.57
2023-03-16T08:29:14.414Z,64.78
2023-03-16T08:30:17.079Z,64.33
2023-03-16T08:31:20.223Z,61.95
2023-03-16T08:32:21.627Z,63.90
2023-03-16T08:33:23.531Z,64.59
2023-03-16T08:34:25.842Z,65.78
2023-03-16T08:35:29.011Z,64.63
2023-03-16T08:36:31.086Z,63.87
2023-03-16T08:37:32.501Z,64.79
2023-03-16T08:38:34.199Z,64.14
2023-03-16T08:39:35.743Z,63.87
2023-03-16T08:40:37.163Z,64.66
2023-03-16T08:41:40.589Z,63.87
2023-03-16T08:42:43.100Z,63.19
2023-03-16T08:43:44.668Z,61.93
2023-03-16T08:44:47.674Z,64.02
2023-03-16T08:45:49.205Z,63.19
2023-03-16T08:46:51.768Z,63.44
2023-03-16T08:47:53.797Z,62.76
2023-03-16T08:48:58.042Z,63.90
2023-03-16T08:50:00.216Z,61.80
2023-03-16T08:51:03.459Z,61.61
2023-03-16T08:52:05.628Z,60.80
2023-03-16T08:53:07.795Z,61.59
2023-03-16T08:54:09.146Z,64.49
2023-03-16T08:55:11.157Z,64.84
2023-03-16T08:56:14.696Z,63.63
2023-03-16T08:57:16.198Z,63.81
2023-03-16T08:58:17.749Z,63.70
2023-03-16T08:59:29.201Z,62.78
2023-03-16T09:00:31.626Z,62.80
2023-03-16T09:01:33.938Z,62.91
2023-03-16T09:02:38.468Z,62.55
2023-03-16T09:03:45.957Z,62.23
2023-03-16T09:04:47.515Z,62.18
2023-03-16T09:05:49.397Z,60.53
2023-03-16T09:07:05.892Z,64.09
2023-03-16T09:08:09.686Z,62.98
2023-03-16T09:09:11.566Z,63.67
2023-03-16T09:10:16.228Z,62.33
2023-03-16T09:11:19.067Z,61.95
2023-03-16T09:12:22.213Z,63.64
2023-03-16T09:13:24.477Z,63.25
2023-03-16T09:14:25.861Z,62.61
2023-03-16T09:15:27.369Z,60.84
2023-03-16T09:16:30.921Z,59.28
2023-03-16T09:17:33.300Z,59.70
2023-03-16T09:18:36.205Z,60.14
2023-03-16T09:19:56.269Z,59.67
2023-03-16T09:21:04.458Z,58.95
2023-03-16T09:22:06.844Z,59.62
2023-03-16T09:23:08.298Z,58.61
2023-03-16T09:24:10.070Z,58.78
2023-03-16T09:25:11.520Z,57.95
2023-03-16T09:26:13.532Z,58.50
2023-03-16T09:27:15.483Z,58.24
2023-03-16T09:28:18.072Z,57.74
2023-03-16T09:29:21.720Z,57.98
2023-03-16T09:30:23.199Z,57.35
2023-03-16T09:31:24.666Z,57.08
2023-03-16T09:32:28.139Z,59.86
2023-03-16T09:33:31.830Z,59.18
2023-03-16T09:34:33.461Z,60.90
2023-03-16T09:35:35.971Z,61.24
2023-03-16T09:36:37.929Z,60.45
2023-03-16T09:37:45.659Z,60.95
2023-03-16T09:38:56.810Z,61.99
2023-03-16T09:40:06.524Z,63.11
2023-03-16T09:41:30.075Z,62.61
2023-03-16T09:42:38.385Z,63.33
2023-03-16T09:44:00.205Z,64.10
2023-03-16T09:45:32.623Z,61.57
2023-03-16T09:46:46.096Z,61.18
2023-03-16T09:47:50.613Z,60.92
2023-03-16T09:48:53.672Z,61.99
2023-03-16T09:50:03.040Z,59.37
2023-03-16T09:51:08.162Z,59.37
2023-03-16T09:52:20.310Z,58.14
2023-03-16T09:53:29.624Z,58.54
2023-03-16T09:54:49.473Z,58.32
2023-03-16T09:56:03.285Z,57.92
2023-03-16T09:57:16.504Z,57.69
2023-03-16T09:58:21.119Z,56.10
2023-03-16T09:59:23.319Z,55.08
2023-03-16T10:00:55.804Z,54.61
2023-03-16T10:02:06.066Z,54.11
2023-03-16T10:03:25.202Z,56.48
2023-03-16T10:04:37.608Z,56.84
2023-03-16T10:05:39.545Z,56.26
2023-03-16T10:06:52.518Z,56.15
2023-03-16T10:08:08.995Z,55.43
2023-03-16T10:09:39.605Z,54.67
2023-03-16T10:11:23.986Z,53.24
2023-03-16T10:12:37.480Z,51.12
2023-03-16T10:13:44.429Z,50.06
2023-03-16T10:15:09.184Z,50.33
2023-03-16T10:16:25.739Z,49.05
2023-03-16T10:17:36.480Z,48.42
2023-03-16T10:18:50.288Z,49.42
2023-03-16T10:19:59.262Z,51.91
2023-03-16T10:21:02.860Z,51.37
2023-03-16T10:22:17.758Z,50.77
2023-03-16T10:23:23.545Z,52.37
2023-03-16T10:24:43.694Z,49.83
2023-03-16T10:25:50.146Z,51.55
2023-03-16T10:27:00.275Z,50.63
2023-03-16T10:28:02.070Z,49.55
2023-03-16T10:29:04.792Z,48.64
2023-03-16T10:30:19.492Z,48.81
2023-03-16T10:31:23.712Z,49.52
2023-03-16T10:32:29.498Z,48.24
2023-03-16T10:33:36.688Z,47.81
2023-03-16T10:34:38.228Z,50.01
2023-03-16T10:35:51.187Z,48.65
2023-03-16T10:36:54.521Z,49.01
2023-03-16T10:37:57.162Z,49.47
2023-03-16T10:39:02.842Z,48.99
2023-03-16T10:40:12.714Z,48.13
2023-03-16T10:41:20.472Z,48.54
2023-03-16T10:42:22.436Z,49.68
2023-03-16T10:43:25.073Z,48.70
2023-03-16T10:44:28.610Z,48.87
2023-03-16T10:45:32.228Z,49.20
2023-03-16T10:46:41.261Z,48.87
2023-03-16T10:47:42.729Z,49.39
2023-03-16T10:48:53.172Z,48.96
2023-03-16T10:49:55.648Z,48.23
2023-03-16T10:50:57.710Z,48.09
2023-03-16T10:52:00.284Z,47.73
2023-03-16T10:53:02.786Z,47.98
2023-03-16T10:54:19.842Z,46.33
2023-03-16T10:55:24.981Z,46.76
2023-03-16T10:56:27.340Z,45.49
2023-03-16T10:57:36.186Z,45.82
2023-03-16T10:58:42.432Z,44.74
2023-03-16T10:59:49.603Z,44.71
2023-03-16T11:00:51.874Z,46.16
2023-03-16T11:01:54.460Z,45.40
2023-03-16T11:02:58.240Z,46.34
2023-03-16T11:04:00.774Z,46.14
2023-03-16T11:05:33.478Z,45.37
2023-03-16T11:06:34.893Z,45.76
2023-03-16T11:07:37.088Z,45.63
2023-03-16T11:08:39.873Z,46.36
2023-03-16T11:09:41.324Z,46.14
2023-03-16T11:10:55.599Z,44.88
2023-03-16T11:11:57.584Z,43.31
2023-03-16T11:13:20.299Z,44.39
2023-03-16T11:14:26.018Z,45.00
2023-03-16T11:15:36.854Z,45.64
2023-03-16T11:16:43.962Z,43.84
2023-03-16T11:17:51.311Z,43.02
2023-03-16T11:18:58.806Z,44.90
2023-03-16T11:20:12.290Z,43.34
2023-03-16T11:21:25.801Z,43.38
2023-03-16T11:22:30.123Z,43.88
2023-03-16T11:23:38.906Z,42.89
2023-03-16T11:24:53.056Z,44.67
2023-03-16T11:25:58.727Z,43.29
2023-03-16T11:27:04.559Z,43.69
2023-03-16T11:28:06.593Z,43.72
2023-03-16T11:29:18.747Z,43.20
2023-03-16T11:30:34.101Z,41.78
2023-03-16T11:31:55.260Z,41.53
2023-03-16T11:33:00.511Z,41.65
2023-03-16T11:34:02.782Z,42.43
2023-03-16T11:35:46.597Z,43.18
2023-03-16T11:37:04.520Z,44.41
2023-03-16T11:38:19.016Z,43.16
2023-03-16T11:39:27.377Z,43.75
2023-03-16T11:40:41.218Z,43.95
2023-03-16T11:42:10.080Z,44.75
2023-03-16T11:43:49.419Z,42.81
2023-03-16T11:45:12.690Z,42.68
2023-03-16T11:46:40.317Z,42.65
2023-03-16T11:48:08.193Z,43.50
2023-03-16T11:49:38.291Z,43.77
2023-03-16T11:51:01.906Z,44.08
2023-03-16T11:52:36.917Z,46.74
2023-03-16T11:53:55.794Z,45.83
2023-03-16T11:55:28.876Z,45.74
2023-03-16T11:56:33.768Z,45.86
2023-03-16T11:57:38.069Z,45.00
2023-03-16T11:59:11.413Z,45.38
2023-03-16T12:00:52.727Z,44.39
2023-03-16T12:02:09.925Z,43.73
2023-03-16T12:03:41.076Z,43.85
2023-03-16T12:04:55.080Z,45.24
2023-03-16T12:05:59.777Z,43.79
2023-03-16T12:07:18.222Z,43.15
2023-03-16T12:08:35.112Z,44.83
2023-03-16T12:09:58.946Z,45.11
2023-03-16T12:11:07.677Z,44.46
2023-03-16T12:12:24.819Z,44.64
2023-03-16T12:13:38.884Z,44.02
2023-03-16T12:14:47.139Z,43.60
2023-03-16T12:15:59.700Z,43.47
2023-03-16T12:17:09.497Z,44.63
2023-03-16T12:18:30.331Z,42.67
2023-03-16T12:20:24.954Z,43.73
2023-03-16T12:21:40.631Z,43.36
2023-03-16T12:22:46.028Z,45.02
2023-03-16T12:23:56.958Z,44.85
2023-03-16T12:24:58.502Z,45.47
2023-03-16T12:26:00.878Z,46.68
2023-03-16T12:27:02.561Z,47.01
2023-03-16T12:28:15.968Z,47.19
2023-03-16T12:29:33.571Z,46.81
2023-03-16T12:30:44.301Z,46.55
2023-03-16T12:31:55.835Z,44.68
2023-03-16T12:33:10.178Z,44.97
2023-03-16T12:34:36.764Z,44.05
2023-03-16T12:36:09.394Z,44.60
2023-03-16T12:37:29.117Z,44.92
2023-03-16T12:38:47.914Z,44.21
2023-03-16T12:39:57.105Z,43.60
2023-03-16T12:41:11.336Z,43.91
2023-03-16T12:42:34.579Z,43.95
2023-03-16T12:43:42.701Z,42.15
2023-03-16T12:45:03.680Z,41.85
2023-03-16T12:46:11.980Z,41.75
2023-03-16T12:47:24.213Z,43.23
2023-03-16T12:48:34.006Z,42.93
2023-03-16T12:49:37.031Z,42.38
2023-03-16T12:50:57.667Z,41.84
2023-03-16T12:52:05.961Z,41.00
2023-03-16T12:53:07.518Z,42.62
2023-03-16T12:54:26.300Z,42.12
2023-03-16T12:55:33.501Z,42.69
2023-03-16T12:56:43.393Z,42.56
2023-03-16T12:57:47.971Z,44.87
2023-03-16T12:58:50.661Z,43.61
2023-03-16T12:59:58.303Z,42.63
2023-03-16T13:01:00.817Z,44.31
2023-03-16T13:02:06.664Z,44.24
2023-03-16T13:03:19.880Z,42.91
2023-03-16T13:04:32.556Z,41.26
2023-03-16T13:05:36.368Z,40.66
2023-03-16T13:06:44.409Z,40.17
2023-03-16T13:07:51.208Z,39.71
2023-03-16T13:08:59.765Z,41.42
2023-03-16T13:10:13.838Z,42.69
2023-03-16T13:11:16.364Z,42.05
2023-03-16T13:12:31.471Z,43.99
2023-03-16T13:13:34.042Z,43.40
2023-03-16T13:14:44.133Z,42.17
2023-03-16T13:15:49.635Z,41.61
2023-03-16T13:16:53.706Z,40.65
2023-03-16T13:18:10.121Z,39.58
2023-03-16T13:19:38.466Z,41.80
2023-03-16T13:20:59.582Z,42.76
2023-03-16T13:22:19.309Z,42.59
2023-03-16T13:23:41.483Z,42.77
2023-03-16T13:24:51.963Z,42.64
2023-03-16T13:26:12.291Z,43.40
2023-03-16T13:27:21.337Z,43.51
2023-03-16T13:28:32.611Z,44.16
2023-03-16T13:29:34.140Z,42.90
2023-03-16T13:30:36.872Z,41.65
2023-03-16T13:31:41.932Z,40.64
2023-03-16T13:32:43.691Z,40.09
2023-03-16T13:33:48.089Z,40.22
2023-03-16T13:34:53.434Z,40.25
2023-03-16T13:35:57.399Z,39.91
2023-03-16T13:37:01.362Z,38.71
2023-03-16T13:38:07.196Z,38.86
2023-03-16T13:39:18.664Z,40.01
2023-03-16T13:40:28.064Z,40.31
2023-03-16T13:41:30.574Z,40.91
2023-03-16T13:42:33.559Z,39.23
2023-03-16T13:43:39.472Z,40.64
2023-03-16T13:44:41.535Z,40.85
2023-03-16T13:45:43.638Z,40.27
2023-03-16T13:46:49.105Z,39.82
2023-03-16T13:47:51.635Z,39.22
2023-03-16T13:48:52.969Z,40.50
2023-03-16T13:49:58.149Z,39.87
2023-03-16T13:50:59.610Z,39.31
2023-03-16T13:52:03.774Z,39.32
2023-03-16T13:53:14.696Z,40.38
2023-03-16T13:54:23.688Z,40.18
2023-03-16T13:55:36.948Z,40.78
2023-03-16T13:56:40.106Z,40.64
2023-03-16T13:57:44.004Z,40.63
2023-03-16T13:58:49.558Z,40.23
2023-03-16T13:59:53.487Z,40.36
2023-03-16T14:01:00.753Z,40.24
2023-03-16T14:02:02.803Z,41.25
2023-03-16T14:03:17.726Z,39.54
2023-03-16T14:04:23.842Z,38.46
2023-03-16T14:05:27.342Z,38.61
2023-03-16T14:06:31.420Z,37.51
2023-03-16T14:07:37.529Z,38.16
2023-03-16T14:08:41.882Z,37.90
2023-03-16T14:09:45.158Z,38.78
2023-03-16T14:10:47.375Z,39.50
2023-03-16T14:11:48.943Z,39.88
2023-03-16T14:12:58.664Z,40.65
2023-03-16T14:14:01.331Z,41.58
2023-03-16T14:15:05.148Z,40.48
2023-03-16T14:16:18.635Z,40.60
2023-03-16T14:17:22.024Z,40.30
2023-03-16T14:18:32.080Z,41.16
2023-03-16T14:19:58.605Z,40.45
2023-03-16T14:21:00.207Z,40.50
2023-03-16T14:22:04.184Z,41.17
2023-03-16T14:23:05.795Z,40.08
2023-03-16T14:24:20.048Z,40.32
2023-03-16T14:25:25.485Z,39.21
2023-03-16T14:26:27.190Z,39.26
2023-03-16T14:27:40.916Z,38.02
2023-03-16T14:29:06.238Z,39.06
2023-03-16T14:30:13.690Z,38.92
2023-03-16T14:31:20.260Z,38.87
2023-03-16T14:32:28.239Z,40.43
2023-03-16T14:33:33.627Z,39.28
2023-03-16T14:34:36.221Z,39.00
2023-03-16T14:35:44.683Z,39.56
2023-03-16T14:36:46.232Z,40.00
2023-03-16T14:37:51.838Z,40.78
2023-03-16T14:38:54.431Z,39.90
2023-03-16T14:40:02.509Z,40.84
2023-03-16T14:41:17.120Z,40.98
2023-03-16T14:42:30.846Z,40.74
2023-03-16T14:43:39.024Z,39.94
2023-03-16T14:44:40.734Z,39.69
2023-03-16T14:45:42.595Z,40.10
2023-03-16T14:46:44.124Z,40.22
2023-03-16T14:47:47.307Z,39.61
2023-03-16T14:48:48.879Z,39.54
2023-03-16T14:49:50.889Z,39.66
2023-03-16T14:50:58.269Z,39.46
2023-03-16T14:52:08.189Z,40.06
2023-03-16T14:53:10.132Z,39.83
2023-03-16T14:54:17.186Z,39.47
2023-03-16T14:55:20.746Z,40.56
2023-03-16T14:56:23.207Z,41.52
2023-03-16T14:57:26.039Z,40.66
2023-03-16T14:58:27.389Z,39.59
2023-03-16T14:59:28.798Z,39.75
2023-03-16T15:00:33.008Z,40.74
2023-03-16T15:01:37.886Z,40.81
2023-03-16T15:02:41.151Z,39.63
2023-03-16T15:03:43.534Z,39.14
2023-03-16T15:04:46.447Z,38.94
2023-03-16T15:05:50.571Z,39.05
2023-03-16T15:06:52.074Z,38.97
2023-03-16T15:07:55.492Z,38.70
2023-03-16T15:08:57.353Z,39.15
2023-03-16T15:10:24.268Z,39.24
2023-03-16T15:11:26.198Z,39.22
2023-03-16T15:12:27.622Z,39.04
2023-03-16T15:13:42.338Z,40.13
2023-03-16T15:15:02.704Z,40.35
2023-03-16T15:16:05.798Z,38.59
2023-03-16T15:17:08.186Z,38.73
2023-03-16T15:18:09.984Z,39.42
2023-03-16T15:19:11.818Z,39.58
2023-03-16T15:20:15.611Z,40.13
2023-03-16T15:21:20.709Z,40.13
2023-03-16T15:22:29.445Z,39.35
2023-03-16T15:23:31.081Z,40.34
2023-03-16T15:24:33.338Z,40.50
2023-03-16T15:25:46.688Z,41.23
2023-03-16T15:26:48.039Z,40.69
2023-03-16T15:27:50.437Z,40.90
2023-03-16T15:28:52.005Z,40.99
2023-03-16T15:29:53.742Z,40.82
2023-03-16T15:31:01.065Z,41.11
2023-03-16T15:32:02.736Z,40.32
2023-03-16T15:33:04.544Z,40.29
2023-03-16T15:34:06.357Z,40.25
2023-03-16T15:35:09.157Z,41.40
2023-03-16T15:36:21.029Z,41.50
2023-03-16T15:37:24.345Z,41.30
2023-03-16T15:38:34.645Z,41.84
2023-03-16T15:39:36.000Z,42.71
2023-03-16T15:40:39.442Z,42.54
2023-03-16T15:41:47.875Z,42.91
2023-03-16T15:42:50.027Z,41.82
2023-03-16T15:43:52.619Z,41.77
2023-03-16T15:44:54.215Z,42.18
2023-03-16T15:45:57.365Z,41.93
2023-03-16T15:47:00.499Z,42.96
2023-03-16T15:48:01.888Z,42.06
2023-03-16T15:49:03.440Z,42.75
2023-03-16T15:50:05.897Z,42.72
2023-03-16T15:51:17.208Z,42.33
2023-03-16T15:52:32.467Z,43.02
2023-03-16T15:53:38.807Z,42.40
2023-03-16T15:54:40.366Z,42.30
2023-03-16T15:55:44.624Z,42.25
2023-03-16T15:56:54.263Z,42.34
2023-03-16T15:57:58.939Z,42.68
2023-03-16T15:59:06.077Z,43.13
2023-03-16T16:00:22.521Z,42.57
2023-03-16T16:01:25.915Z,42.97
2023-03-16T16:02:30.030Z,43.37
2023-03-16T16:03:31.780Z,43.17
2023-03-16T16:04:36.046Z,42.71
2023-03-16T16:05:38.414Z,42.61
2023-03-16T16:06:39.824Z,43.22
2023-03-16T16:07:41.413Z,43.44
2023-03-16T16:08:43.307Z,43.38
2023-03-16T16:09:44.930Z,43.70
2023-03-16T16:10:48.437Z,43.37
2023-03-16T16:11:50.417Z,43.76
2023-03-16T16:12:54.588Z,43.31
2023-03-16T16:13:58.027Z,43.19
2023-03-16T16:14:59.513Z,43.51
2023-03-16T16:16:01.305Z,43.26
2023-03-16T16:17:02.794Z,42.86
2023-03-16T16:18:24.689Z,42.98
2023-03-16T16:19:26.984Z,42.89
2023-03-16T16:20:31.630Z,43.11
2023-03-16T16:21:33.616Z,43.04
2023-03-16T16:22:36.896Z,42.88
2023-03-16T16:23:38.465Z,42.73
2023-03-16T16:24:39.860Z,43.57
2023-03-16T16:25:42.006Z,42.99
2023-03-16T16:26:50.984Z,43.30
2023-03-16T16:27:55.693Z,43.51
2023-03-16T16:28:58.934Z,44.42
2023-03-16T16:30:00.710Z,44.74
2023-03-16T16:31:02.770Z,43.93
2023-03-16T16:32:05.110Z,44.53
2023-03-16T16:33:27.238Z,44.52
2023-03-16T17:05:18.492Z,47.55
2023-03-16T17:06:20.501Z,46.95
2023-03-16T17:07:21.879Z,47.08
2023-03-16T17:08:24.694Z,46.61
2023-03-16T17:09:27.317Z,46.60
2023-03-16T17:10:28.918Z,46.79
2023-03-16T17:11:31.495Z,47.14
2023-03-16T17:12:32.894Z,47.12
